Time;durP1;ratioP1;P1;durP2;ratioP2;P2;SDS_P1;SDS_P2;PMS_P1;PMS_P2;Temp;Humidity;BMP_temperature;BMP_pressure;BME280_temperature;BME280_humidity;BME280_pressure;Samples;Min_cycle;Max_cycle;Signal;HPM_P1;HPM_P2
2021/03/07 00:00:55;;;;;;;14.37;9.80;;;3.40;74.60;;;;;;5097743;28;20252;-60
2021/03/07 00:03:23;;;;;;;16.87;10.27;;;3.40;74.70;;;;;;5104981;28;20203;-61
2021/03/07 00:05:50;;;;;;;16.17;10.30;;;3.40;74.70;;;;;;5092068;28;20201;-62
2021/03/07 00:08:18;;;;;;;15.23;10.60;;;3.30;74.70;;;;;;5095081;28;20567;-61
2021/03/07 00:10:45;;;;;;;17.00;11.33;;;3.30;74.70;;;;;;5091678;28;20209;-62
2021/03/07 00:13:12;;;;;;;13.33;10.27;;;3.30;74.80;;;;;;5098728;28;20208;-60
2021/03/07 00:15:39;;;;;;;17.30;9.87;;;3.30;74.90;;;;;;5092839;28;20520;-59
2021/03/07 00:18:06;;;;;;;16.77;9.80;;;3.30;75.30;;;;;;5100538;28;20211;-60
2021/03/07 00:20:34;;;;;;;17.63;9.30;;;3.30;75.60;;;;;;5092641;28;20311;-58
2021/03/07 00:23:01;;;;;;;16.80;10.47;;;3.30;76.40;;;;;;5095429;28;20228;-59
2021/03/07 00:25:28;;;;;;;17.20;10.60;;;3.30;75.90;;;;;;5094311;28;20205;-61
2021/03/07 00:27:55;;;;;;;16.30;10.90;;;3.30;75.90;;;;;;5096129;28;20200;-59
2021/03/07 00:30:22;;;;;;;15.40;10.23;;;3.30;76.00;;;;;;5092616;28;20213;-60
2021/03/07 00:32:49;;;;;;;20.10;10.90;;;3.30;76.10;;;;;;5091600;28;20208;-61
2021/03/07 00:35:17;;;;;;;13.67;10.30;;;3.20;76.20;;;;;;5094453;28;20201;-63
2021/03/07 00:38:18;;;;;;;17.13;10.47;;;3.20;76.30;;;;;;5098563;28;20318;-62
2021/03/07 00:40:44;;;;;;;15.83;10.33;;;3.20;76.60;;;;;;5100304;28;20228;-60
2021/03/07 00:43:11;;;;;;;17.57;11.03;;;3.20;76.70;;;;;;5093265;28;20212;-63
2021/03/07 00:45:38;;;;;;;12.23;9.60;;;3.10;76.80;;;;;;5098023;28;20209;-63
2021/03/07 00:48:05;;;;;;;16.80;10.60;;;3.10;77.00;;;;;;5104540;28;20209;-60
2021/03/07 00:50:32;;;;;;;15.17;8.87;;;3.00;77.40;;;;;;5104027;27;20284;-63
2021/03/07 00:52:59;;;;;;;14.20;9.23;;;3.00;77.10;;;;;;5097442;28;20554;-61
2021/03/07 00:55:26;;;;;;;11.93;8.57;;;3.00;77.30;;;;;;5092220;28;20213;-62
2021/03/07 00:57:53;;;;;;;16.20;10.37;;;3.00;77.40;;;;;;5093334;28;20209;-62
2021/03/07 01:00:24;;;;;;;15.93;9.73;;;2.90;77.30;;;;;;5094483;28;20236;-62
2021/03/07 01:02:51;;;;;;;15.10;10.00;;;2.90;77.40;;;;;;5105600;28;20376;-62
2021/03/07 01:05:19;;;;;;;14.23;9.43;;;2.80;77.40;;;;;;5099106;28;20193;-63
2021/03/07 01:07:46;;;;;;;11.70;9.10;;;2.80;77.50;;;;;;5099199;28;20213;-62
2021/03/07 01:10:18;;;;;;;16.07;9.33;;;2.80;77.60;;;;;;5097208;28;20286;-63
2021/03/07 01:12:48;;;;;;;10.60;9.13;;;2.80;77.70;;;;;;5094471;28;20227;-62
2021/03/07 01:15:18;;;;;;;12.13;9.10;;;2.80;77.70;;;;;;5093211;28;20216;-62
2021/03/07 01:17:45;;;;;;;11.70;8.20;;;2.80;77.70;;;;;;5096309;28;20201;-63
2021/03/07 01:20:17;;;;;;;11.97;8.63;;;2.80;77.70;;;;;;5091604;28;20582;-63
2021/03/07 01:22:52;;;;;;;14.67;9.97;;;2.70;77.90;;;;;;5095879;28;20219;-63
2021/03/07 01:25:23;;;;;;;12.57;9.27;;;2.70;78.00;;;;;;5093039;28;20228;-62
2021/03/07 01:27:51;;;;;;;16.20;8.87;;;2.70;78.00;;;;;;5093754;28;20215;-62
2021/03/07 01:30:19;;;;;;;15.90;9.27;;;2.60;77.90;;;;;;5094004;28;20866;-63
2021/03/07 01:32:47;;;;;;;11.20;8.43;;;2.60;78.20;;;;;;5093035;28;20213;-62
2021/03/07 01:35:15;;;;;;;10.97;8.30;;;2.60;78.40;;;;;;5099526;28;20246;-61
2021/03/07 01:37:42;;;;;;;12.67;8.80;;;2.60;78.70;;;;;;5091183;28;20217;-63
2021/03/07 01:40:14;;;;;;;10.57;8.07;;;2.50;78.80;;;;;;5103278;28;20216;-62
2021/03/07 01:42:52;;;;;;;14.33;8.93;;;2.50;79.00;;;;;;5099270;28;20221;-62
2021/03/07 01:45:23;;;;;;;15.80;9.13;;;2.50;79.20;;;;;;5097912;28;20630;-62
2021/03/07 01:47:53;;;;;;;16.33;10.27;;;2.50;79.40;;;;;;5097868;28;20593;-62
2021/03/07 01:50:24;;;;;;;13.87;9.47;;;2.50;79.40;;;;;;5095938;28;20266;-62
2021/03/07 01:52:51;;;;;;;14.73;9.30;;;2.50;79.40;;;;;;5093527;28;20208;-62
2021/03/07 01:55:22;;;;;;;14.83;9.90;;;2.50;79.40;;;;;;5099664;28;20266;-62
2021/03/07 01:58:03;;;;;;;12.97;9.23;;;2.40;79.30;;;;;;5096062;28;20217;-62
2021/03/07 02:00:31;;;;;;;13.07;9.60;;;2.40;79.30;;;;;;5097371;28;20538;-62
2021/03/07 02:02:58;;;;;;;13.03;9.40;;;2.40;79.50;;;;;;5101594;28;20220;-62
2021/03/07 02:05:27;;;;;;;13.27;9.73;;;2.50;79.70;;;;;;5095489;28;20213;-63
2021/03/07 02:07:55;;;;;;;19.43;10.17;;;2.50;79.70;;;;;;5101038;28;20216;-62
2021/03/07 02:10:26;;;;;;;11.67;9.53;;;2.50;79.90;;;;;;5099205;28;20198;-62
2021/03/07 02:12:59;;;;;;;11.67;8.37;;;2.50;79.90;;;;;;5098305;28;20201;-62
2021/03/07 02:15:30;;;;;;;12.50;8.87;;;2.50;79.90;;;;;;5098877;28;20208;-62
2021/03/07 02:17:57;;;;;;;17.10;11.33;;;2.50;80.00;;;;;;5096751;28;20204;-62
2021/03/07 02:20:27;;;;;;;13.53;9.00;;;2.40;79.90;;;;;;5099433;28;20216;-62
2021/03/07 02:23:08;;;;;;;14.80;9.07;;;2.40;80.00;;;;;;5092968;28;20236;-62
2021/03/07 02:25:36;;;;;;;12.80;9.67;;;2.40;80.20;;;;;;5103866;28;20193;-62
2021/03/07 02:28:07;;;;;;;12.67;8.50;;;2.30;80.20;;;;;;5099816;28;20347;-62
2021/03/07 02:30:35;;;;;;;14.10;8.83;;;2.30;80.30;;;;;;5092744;28;20428;-62
2021/03/07 02:33:12;;;;;;;11.97;9.17;;;2.20;80.40;;;;;;5101561;28;20285;-62
2021/03/07 02:35:46;;;;;;;13.53;9.23;;;2.20;80.80;;;;;;5101842;28;20240;-62
2021/03/07 02:38:16;;;;;;;11.97;8.03;;;2.20;81.00;;;;;;5100941;28;20209;-62
2021/03/07 02:40:44;;;;;;;15.13;9.37;;;2.20;81.10;;;;;;5106221;28;20221;-63
2021/03/07 02:43:14;;;;;;;12.90;7.80;;;2.20;81.10;;;;;;5098720;28;20580;-62
2021/03/07 02:45:44;;;;;;;12.63;8.87;;;2.20;81.10;;;;;;5100279;28;20196;-63
2021/03/07 02:48:14;;;;;;;14.37;9.57;;;2.20;81.50;;;;;;5096403;28;20485;-62
2021/03/07 02:50:45;;;;;;;11.27;8.40;;;2.20;81.60;;;;;;5095523;28;20201;-62
2021/03/07 02:53:17;;;;;;;13.17;8.47;;;2.30;81.80;;;;;;5097233;28;20622;-63
2021/03/07 02:55:48;;;;;;;15.43;8.87;;;2.30;81.90;;;;;;5100416;28;20582;-63
2021/03/07 02:58:17;;;;;;;12.40;7.93;;;2.30;81.60;;;;;;5111848;28;20682;-62
2021/03/07 03:00:50;;;;;;;11.13;7.83;;;2.30;81.50;;;;;;5101637;28;20651;-62
2021/03/07 03:03:21;;;;;;;11.53;8.10;;;2.20;81.80;;;;;;5096036;28;20212;-62
2021/03/07 03:05:50;;;;;;;14.10;9.63;;;2.20;82.10;;;;;;5099786;28;20197;-62
2021/03/07 03:08:18;;;;;;;13.93;10.77;;;2.20;82.40;;;;;;5099604;28;20298;-62
2021/03/07 03:10:48;;;;;;;17.63;9.67;;;2.30;83.20;;;;;;5099686;28;20212;-62
2021/03/07 03:13:31;;;;;;;12.00;9.33;;;2.30;82.70;;;;;;5098121;28;20201;-62
2021/03/07 03:16:01;;;;;;;13.07;9.47;;;2.40;82.60;;;;;;5093476;28;20209;-62
2021/03/07 03:18:31;;;;;;;14.53;9.17;;;2.40;82.60;;;;;;5100129;28;20683;-62
2021/03/07 03:21:01;;;;;;;13.00;8.73;;;2.40;82.40;;;;;;5101834;28;20231;-62
2021/03/07 03:23:29;;;;;;;12.47;8.10;;;2.40;82.40;;;;;;5101588;28;20281;-62
2021/03/07 03:25:56;;;;;;;11.27;8.27;;;2.40;83.00;;;;;;5094786;28;20252;-62
2021/03/07 03:28:24;;;;;;;12.60;9.10;;;2.40;82.40;;;;;;5093642;28;20213;-62
2021/03/07 03:30:52;;;;;;;11.93;9.00;;;2.40;82.40;;;;;;5094169;28;20217;-62
2021/03/07 03:33:26;;;;;;;14.50;9.63;;;2.40;82.40;;;;;;5102183;28;20204;-62
2021/03/07 03:35:54;;;;;;;12.53;8.67;;;2.40;82.30;;;;;;5098044;28;20644;-63
2021/03/07 03:38:33;;;;;;;16.83;9.83;;;2.30;82.20;;;;;;5100555;28;20295;-62
2021/03/07 03:41:01;;;;;;;13.73;9.63;;;2.30;82.50;;;;;;5095130;28;20240;-62
2021/03/07 03:43:41;;;;;;;14.77;9.73;;;2.30;82.60;;;;;;5099361;28;20617;-62
2021/03/07 03:46:10;;;;;;;13.63;9.23;;;2.30;82.50;;;;;;5095087;28;20227;-62
2021/03/07 03:48:41;;;;;;;12.83;9.70;;;2.30;82.40;;;;;;5098143;28;20542;-62
2021/03/07 03:51:10;;;;;;;15.93;9.50;;;2.30;82.50;;;;;;5096543;28;20262;-62
2021/03/07 03:53:40;;;;;;;16.37;9.13;;;2.30;82.60;;;;;;5100964;28;20197;-62
2021/03/07 03:56:08;;;;;;;11.20;8.70;;;2.30;82.60;;;;;;5109829;28;20209;-62
2021/03/07 03:58:42;;;;;;;11.80;8.33;;;2.30;82.70;;;;;;5098283;28;20265;-62
2021/03/07 04:01:17;;;;;;;11.03;8.47;;;2.30;82.80;;;;;;5101614;28;20327;-62
2021/03/07 04:03:49;;;;;;;13.67;9.43;;;2.30;82.90;;;;;;5094982;28;20486;-62
2021/03/07 04:06:23;;;;;;;13.40;9.67;;;2.20;82.80;;;;;;5099004;28;20205;-62
2021/03/07 04:08:54;;;;;;;16.40;10.93;;;2.20;82.70;;;;;;5094818;28;20651;-62
2021/03/07 04:11:22;;;;;;;13.20;8.93;;;2.20;82.70;;;;;;5092609;28;20213;-62
2021/03/07 04:13:49;;;;;;;13.17;9.47;;;2.10;82.60;;;;;;5095381;28;20224;-62
2021/03/07 04:16:18;;;;;;;15.23;10.13;;;2.10;82.70;;;;;;5091614;28;20204;-62
2021/03/07 04:18:46;;;;;;;14.23;10.67;;;2.10;83.00;;;;;;5092783;28;20271;-62
2021/03/07 04:21:16;;;;;;;12.83;10.00;;;2.10;83.10;;;;;;5094448;28;20233;-62
2021/03/07 04:23:43;;;;;;;9.87;7.67;;;2.10;83.00;;;;;;5097318;28;20205;-62
2021/03/07 04:26:12;;;;;;;10.43;8.67;;;2.10;82.90;;;;;;5095454;28;20646;-62
2021/03/07 04:28:41;;;;;;;15.90;9.83;;;2.10;82.80;;;;;;5098880;28;20527;-62
2021/03/07 04:31:09;;;;;;;11.30;8.90;;;2.00;82.80;;;;;;5097796;28;20553;-62
2021/03/07 04:33:37;;;;;;;13.97;9.27;;;2.00;83.10;;;;;;5103990;28;20216;-62
2021/03/07 04:36:05;;;;;;;15.70;9.93;;;2.00;83.40;;;;;;5095622;28;20288;-63
2021/03/07 04:38:33;;;;;;;12.13;9.33;;;1.90;83.50;;;;;;5101173;28;20211;-63
2021/03/07 04:41:01;;;;;;;12.47;9.67;;;1.90;83.60;;;;;;5096497;28;20216;-62
2021/03/07 04:43:50;;;;;;;13.37;9.53;;;1.90;83.60;;;;;;5105357;28;20676;-62
2021/03/07 04:46:22;;;;;;;14.70;9.60;;;1.90;83.80;;;;;;5094255;28;20209;-62
2021/03/07 04:48:52;;;;;;;12.87;9.27;;;1.90;83.90;;;;;;5101414;28;20219;-62
2021/03/07 04:51:20;;;;;;;15.83;11.13;;;1.90;83.90;;;;;;5099835;28;20227;-62
2021/03/07 04:53:47;;;;;;;17.03;11.53;;;1.90;83.90;;;;;;5099175;28;20201;-62
2021/03/07 04:56:15;;;;;;;19.63;11.00;;;1.90;83.90;;;;;;5097423;28;20221;-62
2021/03/07 04:58:42;;;;;;;13.47;9.90;;;1.90;84.00;;;;;;5102525;28;20223;-62
2021/03/07 05:01:09;;;;;;;13.70;9.00;;;1.90;84.10;;;;;;5095241;28;20240;-62
2021/03/07 05:03:37;;;;;;;12.80;9.53;;;1.90;84.20;;;;;;5101645;28;20283;-62
2021/03/07 05:06:04;;;;;;;12.00;9.10;;;1.90;84.10;;;;;;5100813;28;20201;-62
2021/03/07 05:08:31;;;;;;;15.63;10.03;;;1.80;84.00;;;;;;5101942;28;20269;-62
2021/03/07 05:10:58;;;;;;;15.97;9.57;;;1.80;84.20;;;;;;5101460;28;20213;-63
2021/03/07 05:13:26;;;;;;;13.00;9.40;;;1.80;84.30;;;;;;5105344;28;20240;-62
2021/03/07 05:15:53;;;;;;;13.20;9.93;;;1.80;84.30;;;;;;5103129;28;20609;-62
2021/03/07 05:18:21;;;;;;;14.80;10.17;;;1.80;84.40;;;;;;5102257;28;20204;-62
2021/03/07 05:20:49;;;;;;;16.27;10.00;;;1.70;84.40;;;;;;5102635;28;20236;-62
2021/03/07 05:23:16;;;;;;;12.67;9.33;;;1.70;84.50;;;;;;5103914;28;20215;-62
2021/03/07 05:25:43;;;;;;;13.90;8.63;;;1.70;84.50;;;;;;5105108;28;20201;-62
2021/03/07 05:28:10;;;;;;;13.23;9.40;;;1.70;84.50;;;;;;5104310;28;20200;-62
2021/03/07 05:30:37;;;;;;;14.50;10.27;;;1.70;84.60;;;;;;5099291;28;20238;-62
2021/03/07 05:33:05;;;;;;;16.23;10.20;;;1.70;84.70;;;;;;5100559;28;20211;-62
2021/03/07 05:35:32;;;;;;;13.40;9.93;;;1.70;84.80;;;;;;5092350;28;20490;-62
2021/03/07 05:37:59;;;;;;;14.03;9.53;;;1.70;84.80;;;;;;5103515;28;20192;-62
2021/03/07 05:40:27;;;;;;;17.97;10.80;;;1.60;84.90;;;;;;5096353;28;20205;-62
2021/03/07 05:42:54;;;;;;;16.40;10.70;;;1.60;85.00;;;;;;5091402;28;20300;-62
2021/03/07 05:45:25;;;;;;;14.10;11.20;;;1.60;85.10;;;;;;5098427;28;20196;-62
2021/03/07 05:47:53;;;;;;;16.10;10.57;;;1.60;85.10;;;;;;5092157;28;20513;-62
2021/03/07 05:50:22;;;;;;;13.80;10.77;;;1.60;85.20;;;;;;5094750;28;20219;-62
2021/03/07 05:52:51;;;;;;;18.33;10.47;;;1.50;85.30;;;;;;5099147;28;20229;-62
2021/03/07 05:55:19;;;;;;;14.07;9.80;;;1.60;85.50;;;;;;5099059;28;20302;-62
2021/03/07 05:57:48;;;;;;;12.77;9.43;;;1.70;85.70;;;;;;5097027;28;20227;-62
2021/03/07 06:00:17;;;;;;;11.53;9.63;;;1.70;85.90;;;;;;5095822;28;20687;-62
2021/03/07 06:02:44;;;;;;;15.13;9.80;;;1.80;86.20;;;;;;5091224;28;20288;-62
2021/03/07 06:05:13;;;;;;;16.67;10.00;;;1.90;86.10;;;;;;5099632;28;20287;-62
2021/03/07 06:07:42;;;;;;;16.00;9.97;;;2.00;86.00;;;;;;5095577;28;20209;-62
2021/03/07 06:10:30;;;;;;;13.57;9.07;;;2.10;85.70;;;;;;5095858;28;20224;-62
2021/03/07 06:13:09;;;;;;;10.57;8.73;;;2.30;85.60;;;;;;5096877;28;20417;-62
2021/03/07 06:16:07;;;;;;;15.10;9.77;;;2.40;85.20;;;;;;5106688;28;20657;-62
2021/03/07 06:18:45;;;;;;;14.40;9.27;;;2.50;84.90;;;;;;5099575;28;20227;-62
2021/03/07 06:21:42;;;;;;;11.30;8.73;;;2.70;84.90;;;;;;5104611;28;20223;-63
2021/03/07 06:24:32;;;;;;;12.23;8.53;;;2.90;84.70;;;;;;5090494;28;20621;-62
2021/03/07 06:27:09;;;;;;;19.20;9.50;;;3.00;84.40;;;;;;5102070;28;20228;-62
2021/03/07 06:29:53;;;;;;;12.80;9.90;;;3.20;84.00;;;;;;5100755;28;20200;-62
2021/03/07 06:32:20;;;;;;;10.20;8.43;;;3.40;83.60;;;;;;5097075;28;20217;-62
2021/03/07 06:34:49;;;;;;;12.57;8.73;;;3.50;83.30;;;;;;5105313;28;20205;-62
2021/03/07 06:37:16;;;;;;;10.27;8.27;;;3.60;82.80;;;;;;5103694;28;20217;-62
2021/03/07 06:39:47;;;;;;;15.00;10.10;;;3.70;82.30;;;;;;5096817;28;20201;-62
2021/03/07 06:42:16;;;;;;;12.07;9.07;;;3.80;82.00;;;;;;5096173;28;20233;-62
2021/03/07 06:45:00;;;;;;;12.00;9.10;;;3.90;81.80;;;;;;5103217;28;20211;-62
2021/03/07 06:47:29;;;;;;;12.17;9.40;;;4.00;81.50;;;;;;5102085;28;20220;-62
2021/03/07 06:50:11;;;;;;;11.57;8.63;;;4.10;81.30;;;;;;5096057;28;20202;-63
2021/03/07 06:52:54;;;;;;;16.37;9.50;;;4.20;81.30;;;;;;5094208;28;20520;-62
2021/03/07 06:55:26;;;;;;;13.77;9.63;;;4.30;81.30;;;;;;5101844;28;20248;-62
2021/03/07 06:57:54;;;;;;;15.47;8.40;;;4.40;81.00;;;;;;5096378;28;20327;-62
2021/03/07 07:00:39;;;;;;;12.37;8.77;;;4.60;80.70;;;;;;5097739;28;20241;-62
2021/03/07 07:03:11;;;;;;;13.17;9.77;;;4.70;79.90;;;;;;5094982;28;20205;-63
2021/03/07 07:05:49;;;;;;;17.73;9.47;;;4.70;79.70;;;;;;5095882;28;20221;-62
2021/03/07 07:08:38;;;;;;;10.70;8.43;;;4.80;79.90;;;;;;5098629;28;20250;-61
2021/03/07 07:11:06;;;;;;;14.43;8.87;;;4.90;80.00;;;;;;5096803;28;20320;-61
2021/03/07 07:13:47;;;;;;;15.60;9.10;;;5.00;79.80;;;;;;5108500;28;20208;-62
2021/03/07 07:16:34;;;;;;;13.43;9.77;;;5.10;79.80;;;;;;5097027;28;20224;-61
2021/03/07 07:19:02;;;;;;;11.50;8.43;;;5.20;79.60;;;;;;5100452;28;20670;-62
2021/03/07 07:21:29;;;;;;;11.53;8.03;;;5.40;79.30;;;;;;5100526;28;20228;-62
2021/03/07 07:23:57;;;;;;;11.73;7.90;;;5.50;79.00;;;;;;5097503;28;20215;-62
2021/03/07 07:26:24;;;;;;;12.87;7.83;;;5.70;78.70;;;;;;5093821;28;20198;-62
2021/03/07 07:28:54;;;;;;;12.57;8.80;;;5.80;78.40;;;;;;5098450;28;20232;-62
2021/03/07 07:31:35;;;;;;;13.03;8.57;;;6.00;78.10;;;;;;5101843;28;20617;-62
2021/03/07 07:34:23;;;;;;;11.70;8.33;;;6.20;77.50;;;;;;5095888;28;20205;-62
2021/03/07 07:36:58;;;;;;;12.33;8.50;;;6.40;76.80;;;;;;5106601;28;20638;-62
2021/03/07 07:39:32;;;;;;;12.23;8.07;;;6.60;76.30;;;;;;5096136;28;20212;-62
2021/03/07 07:42:23;;;;;;;14.23;8.67;;;6.70;76.00;;;;;;5099606;28;20673;-62
2021/03/07 07:44:54;;;;;;;15.87;8.93;;;6.90;75.80;;;;;;5106524;28;20204;-62
2021/03/07 07:47:22;;;;;;;12.90;9.00;;;7.10;75.30;;;;;;5096424;28;20262;-62
2021/03/07 07:49:52;;;;;;;14.60;8.80;;;7.30;74.80;;;;;;5096661;28;20623;-62
2021/03/07 07:52:22;;;;;;;11.80;9.40;;;7.50;74.10;;;;;;5097851;28;20218;-62
2021/03/07 07:54:54;;;;;;;12.07;9.47;;;7.70;73.60;;;;;;5101132;28;20273;-62
2021/03/07 07:57:37;;;;;;;13.00;10.03;;;7.80;72.90;;;;;;5091818;28;20224;-62
2021/03/07 08:00:10;;;;;;;12.07;9.37;;;8.00;72.00;;;;;;5096837;28;20743;-62
2021/03/07 08:02:57;;;;;;;18.77;9.70;;;8.10;71.30;;;;;;5094574;28;21793;-62
2021/03/07 08:05:26;;;;;;;14.73;8.93;;;8.30;71.00;;;;;;5094369;28;20567;-62
2021/03/07 08:08:03;;;;;;;13.47;9.93;;;8.50;71.00;;;;;;5099725;28;20236;-62
2021/03/07 08:10:50;;;;;;;12.93;9.47;;;8.60;70.60;;;;;;5095423;28;20239;-63
2021/03/07 08:13:47;;;;;;;13.43;9.30;;;8.80;69.80;;;;;;5100352;28;20205;-62
2021/03/07 08:16:46;;;;;;;17.97;9.40;;;9.00;68.60;;;;;;5096489;28;20219;-62
2021/03/07 08:19:18;;;;;;;12.53;9.67;;;9.20;67.60;;;;;;5099133;28;20259;-62
2021/03/07 08:22:03;;;;;;;13.00;8.40;;;9.30;66.70;;;;;;5101213;28;20232;-62
2021/03/07 08:24:52;;;;;;;14.37;9.00;;;9.40;64.60;;;;;;5093242;28;20207;-62
2021/03/07 08:27:39;;;;;;;10.00;7.90;;;9.40;62.70;;;;;;5100468;28;20719;-62
2021/03/07 08:30:16;;;;;;;12.13;9.00;;;9.40;61.60;;;;;;5098042;28;20201;-62
2021/03/07 08:32:44;;;;;;;9.57;7.60;;;9.50;61.50;;;;;;5096451;28;20728;-62
2021/03/07 08:35:13;;;;;;;9.30;7.93;;;9.60;60.50;;;;;;5099764;28;20265;-62
2021/03/07 08:37:41;;;;;;;10.97;8.60;;;9.60;60.20;;;;;;5098477;28;20284;-62
2021/03/07 08:40:29;;;;;;;11.90;8.33;;;9.60;60.10;;;;;;5094174;28;20204;-62
2021/03/07 08:43:37;;;;;;;10.03;8.43;;;9.80;60.60;;;;;;5101263;28;20224;-62
2021/03/07 08:46:05;;;;;;;11.83;8.80;;;9.90;60.40;;;;;;5018993;28;20207;-62
2021/03/07 08:48:33;;;;;;;12.83;8.80;;;9.90;60.20;;;;;;5025599;28;20204;-63
2021/03/07 08:54:48;;;;;;;12.37;9.40;;;10.10;61.00;;;;;;5093810;28;20187;-62
2021/03/07 08:57:15;;;;;;;13.50;9.57;;;10.20;59.60;;;;;;5094548;28;20201;-62
2021/03/07 09:03:27;;;;;;;11.00;8.67;;;10.20;60.40;;;;;;5094066;28;20236;-62
2021/03/07 09:05:55;;;;;;;11.70;8.60;;;10.40;60.70;;;;;;5095213;28;20212;-62
2021/03/07 09:08:24;;;;;;;14.43;9.60;;;10.40;60.50;;;;;;5095486;28;20212;-62
2021/03/07 09:10:54;;;;;;;12.33;9.30;;;10.50;60.50;;;;;;5097306;28;20244;-62
2021/03/07 09:13:24;;;;;;;11.83;7.97;;;10.60;60.20;;;;;;5094076;28;20221;-63
2021/03/07 09:16:01;;;;;;;10.23;8.27;;;10.70;60.20;;;;;;5093555;28;20532;-62
2021/03/07 09:18:35;;;;;;;10.07;8.30;;;10.80;60.30;;;;;;5099306;28;20208;-62
2021/03/07 09:21:18;;;;;;;9.43;7.80;;;11.10;59.90;;;;;;5099272;28;20292;-62
2021/03/07 09:23:46;;;;;;;8.87;7.50;;;11.30;59.40;;;;;;5102968;28;20210;-62
2021/03/07 09:26:22;;;;;;;11.53;7.90;;;11.50;58.40;;;;;;5097456;28;20273;-62
2021/03/07 09:28:51;;;;;;;12.90;7.93;;;11.60;58.10;;;;;;5093984;28;20208;-62
2021/03/07 09:31:21;;;;;;;10.27;6.67;;;11.70;57.90;;;;;;5096513;28;20220;-62
2021/03/07 09:34:00;;;;;;;9.37;5.83;;;11.80;57.60;;;;;;5101550;28;20238;-62
2021/03/07 09:36:29;;;;;;;8.63;6.57;;;11.70;55.70;;;;;;5095013;28;20208;-62
2021/03/07 09:39:02;;;;;;;7.63;5.97;;;11.70;56.00;;;;;;5096630;28;20209;-62
2021/03/07 09:41:38;;;;;;;9.30;6.37;;;11.80;56.30;;;;;;5094829;28;20252;-62
2021/03/07 09:44:26;;;;;;;8.90;6.33;;;12.00;56.00;;;;;;5099135;28;20219;-62
2021/03/07 09:46:53;;;;;;;12.13;6.57;;;12.10;56.00;;;;;;5099164;28;20422;-62
2021/03/07 09:49:23;;;;;;;9.60;5.80;;;12.30;55.60;;;;;;5101142;28;20623;-62
2021/03/07 09:51:52;;;;;;;8.33;6.67;;;12.40;55.60;;;;;;5098184;28;20205;-62
2021/03/07 09:54:20;;;;;;;9.97;6.20;;;12.50;55.00;;;;;;5095337;28;20664;-62
2021/03/07 09:56:52;;;;;;;7.47;5.70;;;12.60;53.50;;;;;;5097263;28;20201;-62
2021/03/07 09:59:32;;;;;;;7.10;4.70;;;12.60;52.60;;;;;;5096620;28;20229;-62
2021/03/07 10:02:03;;;;;;;8.17;5.60;;;12.50;52.10;;;;;;5103788;28;20251;-63
2021/03/07 10:04:45;;;;;;;11.00;5.27;;;12.40;52.90;;;;;;5095372;28;20209;-62
2021/03/07 10:07:15;;;;;;;7.60;5.37;;;12.50;53.90;;;;;;5098865;28;20227;-62
2021/03/07 10:10:10;;;;;;;7.60;5.80;;;12.60;53.70;;;;;;5098339;28;20254;-62
2021/03/07 10:12:47;;;;;;;6.93;5.33;;;12.80;53.60;;;;;;5101836;28;20205;-62
2021/03/07 10:15:33;;;;;;;4.77;3.93;;;13.00;53.40;;;;;;5100710;28;20236;-62
2021/03/07 10:18:03;;;;;;;8.03;4.67;;;13.10;51.90;;;;;;5102795;28;20205;-62
2021/03/07 10:20:39;;;;;;;6.67;4.07;;;13.10;51.90;;;;;;5105728;28;20564;-62
2021/03/07 10:23:06;;;;;;;5.83;4.50;;;13.20;51.50;;;;;;5101471;28;20239;-62
2021/03/07 10:25:37;;;;;;;8.73;4.63;;;13.30;51.40;;;;;;5100664;28;20201;-62
2021/03/07 10:28:28;;;;;;;7.17;4.30;;;13.40;50.00;;;;;;5102258;28;20548;-62
2021/03/07 10:31:10;;;;;;;5.27;4.20;;;13.40;49.70;;;;;;5099358;28;20201;-62
2021/03/07 10:33:38;;;;;;;5.57;4.70;;;13.50;48.30;;;;;;5096380;28;20208;-62
2021/03/07 10:36:25;;;;;;;6.40;4.27;;;13.50;48.50;;;;;;5105922;28;20205;-62
2021/03/07 10:39:09;;;;;;;5.40;4.63;;;13.50;46.60;;;;;;5100359;28;20209;-63
2021/03/07 10:41:37;;;;;;;6.43;4.23;;;13.50;47.00;;;;;;5095854;28;20225;-62
2021/03/07 10:44:06;;;;;;;7.03;4.63;;;13.40;46.10;;;;;;5095494;28;20233;-62
2021/03/07 10:46:36;;;;;;;5.53;4.93;;;13.30;45.90;;;;;;5105170;28;20201;-62
2021/03/07 10:49:20;;;;;;;10.07;5.30;;;13.20;46.50;;;;;;5104069;28;20303;-63
2021/03/07 10:51:47;;;;;;;5.67;5.00;;;13.30;46.80;;;;;;5100848;28;20229;-63
2021/03/07 10:54:15;;;;;;;6.27;5.03;;;13.30;47.40;;;;;;5102698;28;20513;-62
2021/03/07 10:56:41;;;;;;;6.37;5.03;;;13.50;48.00;;;;;;5094730;28;20209;-62
2021/03/07 10:59:10;;;;;;;5.07;4.50;;;13.70;47.60;;;;;;5096973;28;20290;-63
2021/03/07 11:01:40;;;;;;;5.40;4.87;;;13.80;46.40;;;;;;5099446;28;20239;-62
2021/03/07 11:04:09;;;;;;;8.10;5.30;;;13.70;45.60;;;;;;5097572;28;20231;-62
2021/03/07 11:06:36;;;;;;;6.07;5.27;;;13.60;45.80;;;;;;5098611;28;20202;-63
2021/03/07 11:09:04;;;;;;;6.73;5.40;;;13.60;46.00;;;;;;5093753;28;20274;-61
2021/03/07 11:11:34;;;;;;;8.27;6.17;;;13.60;46.40;;;;;;5104129;28;20238;-61
2021/03/07 11:14:02;;;;;;;6.23;5.20;;;13.80;46.80;;;;;;5092904;28;20217;-61
2021/03/07 11:16:29;;;;;;;7.30;6.00;;;14.00;46.50;;;;;;5094348;28;20224;-61
2021/03/07 11:19:15;;;;;;;8.47;6.07;;;14.20;46.20;;;;;;5104029;28;20217;-63
2021/03/07 11:21:43;;;;;;;6.83;5.40;;;14.20;46.00;;;;;;5098844;28;20844;-61
2021/03/07 11:24:10;;;;;;;7.33;5.90;;;14.20;47.30;;;;;;5105075;28;20209;-61
2021/03/07 11:26:37;;;;;;;7.60;5.87;;;14.40;46.80;;;;;;5104234;28;20204;-61
2021/03/07 11:29:05;;;;;;;8.27;6.37;;;14.50;45.60;;;;;;5093975;28;20205;-61
2021/03/07 11:31:33;;;;;;;9.57;6.63;;;14.50;45.60;;;;;;5105556;28;20561;-62
2021/03/07 11:34:00;;;;;;;6.80;6.10;;;14.50;46.20;;;;;;5103844;28;20868;-61
2021/03/07 11:36:27;;;;;;;7.33;6.13;;;14.60;45.40;;;;;;5096739;28;20266;-61
2021/03/07 11:38:54;;;;;;;7.03;6.43;;;14.60;46.10;;;;;;5106814;28;20219;-61
2021/03/07 11:41:22;;;;;;;10.77;7.63;;;14.80;47.00;;;;;;5100534;28;20320;-61
2021/03/07 11:43:49;;;;;;;8.33;7.53;;;14.90;45.70;;;;;;5102218;28;20225;-61
2021/03/07 11:46:16;;;;;;;8.80;6.90;;;14.90;44.50;;;;;;5092966;28;20232;-61
2021/03/07 11:48:44;;;;;;;7.40;6.60;;;14.90;44.40;;;;;;5107264;28;20630;-62
2021/03/07 11:51:11;;;;;;;7.70;6.83;;;14.80;44.60;;;;;;5096059;27;20541;-61
2021/03/07 11:53:38;;;;;;;7.70;6.90;;;14.80;45.10;;;;;;5094639;28;20201;-62
2021/03/07 11:56:06;;;;;;;8.23;7.10;;;14.90;45.50;;;;;;5094848;28;20578;-61
2021/03/07 11:58:33;;;;;;;8.23;6.63;;;15.00;45.30;;;;;;5110647;28;20265;-62
2021/03/07 12:01:00;;;;;;;10.87;6.83;;;15.20;44.90;;;;;;5096338;28;20261;-62
2021/03/07 12:03:27;;;;;;;8.23;7.33;;;15.20;44.60;;;;;;5101115;28;20216;-62
2021/03/07 12:05:54;;;;;;;7.47;6.73;;;15.30;44.30;;;;;;5106102;28;20272;-62
2021/03/07 12:08:22;;;;;;;8.00;7.17;;;15.30;44.00;;;;;;5101805;28;20605;-62
2021/03/07 12:10:49;;;;;;;10.00;6.83;;;15.30;43.60;;;;;;5101313;28;20205;-62
2021/03/07 12:13:16;;;;;;;8.13;7.07;;;15.30;43.30;;;;;;5094698;28;20220;-61
2021/03/07 12:15:43;;;;;;;8.97;7.50;;;15.30;43.00;;;;;;5102961;28;20211;-64
2021/03/07 12:18:10;;;;;;;9.07;8.13;;;15.10;42.20;;;;;;5099937;28;20209;-62
2021/03/07 12:20:38;;;;;;;8.47;7.67;;;14.90;41.70;;;;;;5097151;28;20209;-63
2021/03/07 12:23:07;;;;;;;10.37;7.80;;;14.60;42.20;;;;;;5098122;28;20742;-64
2021/03/07 12:25:34;;;;;;;11.50;8.03;;;14.60;42.50;;;;;;5101105;28;20282;-63
2021/03/07 12:28:01;;;;;;;9.83;8.07;;;14.50;42.40;;;;;;5109048;28;20329;-62
2021/03/07 12:30:29;;;;;;;8.70;7.67;;;14.40;41.90;;;;;;5105717;28;20207;-60
2021/03/07 12:32:56;;;;;;;8.77;7.33;;;14.20;41.70;;;;;;5101769;28;20220;-61
2021/03/07 12:35:23;;;;;;;9.80;8.10;;;14.10;42.60;;;;;;5094501;28;20421;-62
2021/03/07 12:37:50;;;;;;;10.23;8.03;;;14.30;43.50;;;;;;5093786;28;20201;-63
2021/03/07 12:40:17;;;;;;;8.93;7.13;;;14.40;42.80;;;;;;5101943;28;20209;-62
2021/03/07 12:42:43;;;;;;;8.40;7.40;;;14.50;43.50;;;;;;5100886;28;20216;-63
2021/03/07 12:45:11;;;;;;;8.97;7.33;;;14.60;44.00;;;;;;5098157;28;20205;-61
2021/03/07 12:47:38;;;;;;;8.13;7.03;;;14.70;42.90;;;;;;5101538;28;20517;-60
2021/03/07 12:50:24;;;;;;;8.17;6.90;;;14.60;42.60;;;;;;5098855;28;20635;-63
2021/03/07 12:52:52;;;;;;;8.83;7.53;;;14.60;43.60;;;;;;5096659;28;20215;-62
2021/03/07 12:55:18;;;;;;;12.63;8.03;;;14.60;42.80;;;;;;5093538;28;20661;-62
2021/03/07 12:57:45;;;;;;;8.83;7.90;;;14.60;41.70;;;;;;5095431;28;20196;-61
2021/03/07 13:00:13;;;;;;;8.50;7.40;;;14.50;42.50;;;;;;5093821;28;20237;-62
2021/03/07 13:02:39;;;;;;;10.43;7.53;;;14.40;42.50;;;;;;5092201;28;20233;-60
2021/03/07 13:05:07;;;;;;;10.37;8.20;;;14.20;43.30;;;;;;5091394;28;20215;-61
2021/03/07 13:07:34;;;;;;;9.50;8.57;;;14.10;43.60;;;;;;5093615;28;20286;-61
2021/03/07 13:10:02;;;;;;;10.00;8.23;;;14.10;44.20;;;;;;5092437;28;20224;-61
2021/03/07 13:12:29;;;;;;;9.13;7.87;;;14.10;43.40;;;;;;5095285;28;20219;-61
2021/03/07 13:14:55;;;;;;;10.07;8.00;;;14.00;43.40;;;;;;5098659;28;20618;-61